createdAt,value
2022-11-21T00:00:31.376Z,0.23
2022-11-21T00:01:31.528Z,0.24
2022-11-21T00:02:31.361Z,0.24
2022-11-21T00:03:31.346Z,0.24
2022-11-21T00:04:31.346Z,0.25
2022-11-21T00:05:31.318Z,0.25
2022-11-21T00:06:31.484Z,0.26
2022-11-21T00:07:31.335Z,0.27
2022-11-21T00:08:31.287Z,0.29
2022-11-21T00:09:31.290Z,0.30
2022-11-21T00:10:31.268Z,0.31
2022-11-21T00:11:31.254Z,0.32
2022-11-21T00:12:31.408Z,0.32
2022-11-21T00:13:31.233Z,0.32
2022-11-21T00:14:31.233Z,0.32
2022-11-21T00:15:31.212Z,0.32
2022-11-21T00:16:31.208Z,0.32
2022-11-21T00:17:31.367Z,0.32
2022-11-21T00:18:31.235Z,0.32
2022-11-21T00:19:31.171Z,0.32
2022-11-21T00:20:31.161Z,0.33
2022-11-21T00:21:31.156Z,0.33
2022-11-21T00:22:31.135Z,0.33
2022-11-21T00:23:31.304Z,0.33
2022-11-21T00:24:31.121Z,0.34
2022-11-21T00:25:31.137Z,0.35
2022-11-21T00:26:31.095Z,0.37
2022-11-21T00:27:31.105Z,0.38
2022-11-21T00:28:31.253Z,0.40
2022-11-21T00:29:31.076Z,0.41
2022-11-21T00:30:31.053Z,0.42
2022-11-21T00:31:31.044Z,0.43
2022-11-21T00:32:31.067Z,0.44
2022-11-21T00:33:31.021Z,0.44
2022-11-21T00:34:31.222Z,0.44
2022-11-21T00:35:31.008Z,0.44
2022-11-21T00:36:30.985Z,0.44
2022-11-21T00:37:30.989Z,0.44
2022-11-21T00:38:30.979Z,0.44
2022-11-21T00:39:30.956Z,0.44
2022-11-21T00:40:31.101Z,0.44
2022-11-21T00:41:30.941Z,0.44
2022-11-21T00:42:30.924Z,0.44
2022-11-21T00:43:30.948Z,0.44
2022-11-21T00:44:30.898Z,0.45
2022-11-21T00:45:31.339Z,0.45
2022-11-21T00:46:30.876Z,0.45
2022-11-21T00:47:30.868Z,0.46
2022-11-21T00:48:30.857Z,0.46
2022-11-21T00:49:30.854Z,0.47
2022-11-21T00:50:30.828Z,0.48
2022-11-21T00:51:30.989Z,0.49
2022-11-21T00:52:30.832Z,0.50
2022-11-21T00:53:30.813Z,0.50
2022-11-21T00:54:30.797Z,0.50
2022-11-21T00:55:30.789Z,0.50
2022-11-21T00:56:30.940Z,0.50
2022-11-21T00:57:30.760Z,0.49
2022-11-21T00:58:30.756Z,0.49
2022-11-21T00:59:30.735Z,0.49
2022-11-21T01:00:30.756Z,0.48
2022-11-21T01:01:30.725Z,0.48
2022-11-21T01:02:30.895Z,0.48
2022-11-21T01:03:30.703Z,0.48
2022-11-21T01:04:30.687Z,0.48
2022-11-21T01:05:30.675Z,0.48
2022-11-21T01:06:30.664Z,0.48
2022-11-21T01:07:30.690Z,0.49
2022-11-21T01:08:30.814Z,0.49
2022-11-21T01:09:30.625Z,0.49
2022-11-21T01:10:30.626Z,0.49
2022-11-21T01:11:30.617Z,0.50
2022-11-21T01:12:30.596Z,0.51
2022-11-21T01:13:30.590Z,0.52
2022-11-21T01:14:30.753Z,0.53
2022-11-21T01:15:30.563Z,0.53
2022-11-21T01:16:30.554Z,0.54
2022-11-21T01:17:30.546Z,0.56
2022-11-21T01:18:30.532Z,0.56
2022-11-21T01:19:30.522Z,0.57
2022-11-21T01:20:30.677Z,0.58
2022-11-21T01:21:30.509Z,0.58
2022-11-21T01:22:30.492Z,0.58
2022-11-21T01:23:30.473Z,0.58
2022-11-21T01:24:30.480Z,0.58
2022-11-21T01:25:30.466Z,0.58
2022-11-21T01:26:30.763Z,0.58
2022-11-21T01:27:30.437Z,0.58
2022-11-21T01:28:30.422Z,0.58
2022-11-21T01:29:30.432Z,0.57
2022-11-21T01:30:30.411Z,0.57
2022-11-21T01:31:30.401Z,0.57
2022-11-21T01:32:30.559Z,0.57
2022-11-21T01:33:30.375Z,0.57
2022-11-21T01:34:30.370Z,0.57
2022-11-21T01:35:30.351Z,0.58
2022-11-21T01:36:30.342Z,0.58
2022-11-21T01:37:30.510Z,0.59
2022-11-21T01:38:30.321Z,0.59
2022-11-21T01:39:30.319Z,0.60
2022-11-21T01:40:30.310Z,0.60
2022-11-21T01:41:30.293Z,0.60
2022-11-21T01:42:30.281Z,0.60
2022-11-21T01:43:30.451Z,0.59
2022-11-21T01:44:30.604Z,0.59
2022-11-21T01:45:30.240Z,0.59
2022-11-21T01:46:30.240Z,0.59
2022-11-21T01:47:30.229Z,0.58
2022-11-21T01:48:30.221Z,0.58
2022-11-21T01:49:30.369Z,0.58
2022-11-21T01:50:30.188Z,0.57
2022-11-21T01:51:30.184Z,0.57
2022-11-21T01:52:30.168Z,0.57
2022-11-21T01:53:30.161Z,0.57
2022-11-21T01:54:30.599Z,0.57
2022-11-21T01:55:30.135Z,0.57
2022-11-21T01:56:30.127Z,0.57
2022-11-21T01:57:30.113Z,0.57
2022-11-21T01:58:30.106Z,0.57
2022-11-21T01:59:30.268Z,0.58
2022-11-21T02:00:30.080Z,0.58
2022-11-21T02:01:30.122Z,0.58
2022-11-21T02:02:30.074Z,0.58
2022-11-21T02:03:30.054Z,0.58
2022-11-21T02:04:30.084Z,0.58
2022-11-21T02:05:30.216Z,0.58
2022-11-21T02:06:30.017Z,0.58
2022-11-21T02:07:30.032Z,0.58
2022-11-21T02:08:29.995Z,0.58
2022-11-21T02:09:29.998Z,0.59
2022-11-21T02:10:29.982Z,0.59
2022-11-21T02:11:30.124Z,0.60
2022-11-21T02:12:30.040Z,0.60
2022-11-21T02:13:29.945Z,0.60
2022-11-21T02:14:30.126Z,0.60
2022-11-21T02:15:29.926Z,0.61
2022-11-21T02:16:30.084Z,0.61
2022-11-21T02:17:29.902Z,0.62
2022-11-21T02:18:29.908Z,0.62
2022-11-21T02:19:29.884Z,0.62
2022-11-21T02:20:29.867Z,0.63
2022-11-21T02:21:30.086Z,0.63
2022-11-21T02:22:29.847Z,0.63
2022-11-21T02:23:29.846Z,0.63
2022-11-21T02:24:30.073Z,0.64
2022-11-21T02:25:29.813Z,0.64
2022-11-21T02:26:29.801Z,0.64
2022-11-21T02:27:30.030Z,0.64
2022-11-21T02:28:29.783Z,0.63
2022-11-21T02:29:29.771Z,0.63
2022-11-21T02:30:29.756Z,0.63
2022-11-21T02:31:29.751Z,0.63
2022-11-21T02:32:29.741Z,0.63
2022-11-21T02:33:29.882Z,0.62
2022-11-21T02:34:29.959Z,0.62
2022-11-21T02:35:29.715Z,0.62
2022-11-21T02:36:29.693Z,0.62
2022-11-21T02:37:29.701Z,0.62
2022-11-21T02:38:29.910Z,0.62
2022-11-21T02:39:29.674Z,0.62
2022-11-21T02:40:29.661Z,0.62
2022-11-21T02:41:29.644Z,0.62
2022-11-21T02:42:29.640Z,0.63
2022-11-21T02:43:29.623Z,0.63
2022-11-21T02:44:30.106Z,0.63
2022-11-21T02:45:29.603Z,0.63
2022-11-21T02:46:29.598Z,0.63
2022-11-21T02:47:29.578Z,0.64
2022-11-21T02:48:29.575Z,0.65
2022-11-21T02:49:29.564Z,0.66
2022-11-21T02:50:29.705Z,0.66
2022-11-21T02:51:29.544Z,0.66
2022-11-21T02:52:29.535Z,0.66
2022-11-21T02:53:29.517Z,0.67
2022-11-21T02:54:29.948Z,0.67
2022-11-21T02:55:29.497Z,0.67
2022-11-21T02:56:29.482Z,0.68
2022-11-21T02:57:29.472Z,0.68
2022-11-21T02:58:29.459Z,0.68
2022-11-21T02:59:29.798Z,0.68
2022-11-21T03:00:29.435Z,0.68
2022-11-21T03:01:29.490Z,0.68
2022-11-21T03:02:29.417Z,0.68
2022-11-21T03:03:29.410Z,0.68
2022-11-21T03:04:29.717Z,0.68
2022-11-21T03:05:29.545Z,0.68
2022-11-21T03:06:29.378Z,0.69
2022-11-21T03:07:29.397Z,0.70
2022-11-21T03:08:29.358Z,0.70
2022-11-21T03:09:29.342Z,0.71
2022-11-21T03:10:29.607Z,0.71
2022-11-21T03:11:29.331Z,0.71
2022-11-21T03:12:29.312Z,0.71
2022-11-21T03:13:29.302Z,0.71
2022-11-21T03:14:29.631Z,0.71
2022-11-21T03:15:29.274Z,0.72
2022-11-21T03:16:29.453Z,0.72
2022-11-21T03:17:29.246Z,0.73
2022-11-21T03:18:29.245Z,0.73
2022-11-21T03:19:29.236Z,0.73
2022-11-21T03:20:29.234Z,0.73
2022-11-21T03:21:29.401Z,0.74
2022-11-21T03:22:29.204Z,0.74
2022-11-21T03:23:29.204Z,0.76
2022-11-21T03:24:29.566Z,0.77
2022-11-21T03:25:29.170Z,0.78
2022-11-21T03:26:29.353Z,0.79
2022-11-21T03:27:29.142Z,0.80
2022-11-21T03:28:29.133Z,0.82
2022-11-21T03:29:29.402Z,0.83
2022-11-21T03:30:29.114Z,0.85
2022-11-21T03:31:29.113Z,0.86
2022-11-21T03:32:29.254Z,0.87
2022-11-21T03:33:29.088Z,0.87
2022-11-21T03:34:29.457Z,0.88
2022-11-21T03:35:29.085Z,0.88
2022-11-21T03:36:29.054Z,0.87
2022-11-21T03:37:29.236Z,0.87
2022-11-21T03:38:29.032Z,0.87
2022-11-21T03:39:29.022Z,0.87
2022-11-21T03:40:29.011Z,0.88
2022-11-21T03:41:29.003Z,0.88
2022-11-21T03:42:28.990Z,0.88
2022-11-21T03:43:29.138Z,0.88
2022-11-21T03:44:29.366Z,0.88
2022-11-21T03:45:28.959Z,0.88
2022-11-21T03:46:28.939Z,0.87
2022-11-21T03:47:28.934Z,0.86
2022-11-21T03:48:29.121Z,0.85
2022-11-21T03:49:28.910Z,0.84
2022-11-21T03:50:28.896Z,0.83
2022-11-21T03:51:28.889Z,0.82
2022-11-21T03:52:28.877Z,0.81
2022-11-21T03:53:28.868Z,0.81
2022-11-21T03:54:29.501Z,0.80
2022-11-21T03:55:28.850Z,0.80
2022-11-21T03:56:28.842Z,0.80
2022-11-21T03:57:28.827Z,0.79
2022-11-21T03:58:28.823Z,0.78
2022-11-21T03:59:28.807Z,0.76
2022-11-21T04:00:28.947Z,0.74
2022-11-21T04:01:33.755Z,0.73
2022-11-21T04:02:29.777Z,0.72
2022-11-21T04:03:28.756Z,0.71
2022-11-21T04:04:29.097Z,0.70
2022-11-21T04:05:28.891Z,0.69
2022-11-21T04:06:28.725Z,0.69
2022-11-21T04:07:28.740Z,0.69
2022-11-21T04:08:28.708Z,0.69
2022-11-21T04:09:28.703Z,0.69
2022-11-21T04:10:28.835Z,0.69
2022-11-21T04:11:28.676Z,0.68
2022-11-21T04:12:28.673Z,0.68
2022-11-21T04:13:28.644Z,0.67
2022-11-21T04:14:28.891Z,0.67
2022-11-21T04:15:28.803Z,0.68
2022-11-21T04:16:28.706Z,0.69
2022-11-21T04:17:28.604Z,0.69
2022-11-21T04:18:28.594Z,0.70
2022-11-21T04:19:28.588Z,0.70
2022-11-21T04:20:28.604Z,0.70
2022-11-21T04:21:28.738Z,0.69
2022-11-21T04:22:28.554Z,0.68
2022-11-21T04:23:28.555Z,0.67
2022-11-21T04:24:28.844Z,0.66
2022-11-21T04:25:28.532Z,0.65
2022-11-21T04:26:28.517Z,0.64
2022-11-21T04:27:28.663Z,0.63
2022-11-21T04:28:28.507Z,0.61
2022-11-21T04:29:28.497Z,0.60
2022-11-21T04:30:28.484Z,0.59
2022-11-21T04:31:28.457Z,0.58
2022-11-21T04:32:28.607Z,0.58
2022-11-21T04:33:28.444Z,0.57
2022-11-21T04:34:28.927Z,0.57
2022-11-21T04:35:28.431Z,0.57
2022-11-21T04:36:28.424Z,0.57
2022-11-21T04:37:28.391Z,0.56
2022-11-21T04:38:28.393Z,0.55
2022-11-21T04:39:28.371Z,0.52
2022-11-21T04:40:28.525Z,0.50
2022-11-21T04:41:28.357Z,0.48
2022-11-21T04:42:28.345Z,0.47
2022-11-21T04:43:28.379Z,0.46
2022-11-21T04:44:28.457Z,0.46
2022-11-21T04:45:28.314Z,0.47
2022-11-21T04:46:28.467Z,0.48
2022-11-21T04:47:28.305Z,0.48
2022-11-21T04:48:28.271Z,0.50
2022-11-21T04:49:28.272Z,0.51
2022-11-21T04:50:28.262Z,0.52
2022-11-21T04:51:28.417Z,0.52
2022-11-21T04:52:28.239Z,0.53
2022-11-21T04:53:28.243Z,0.53
2022-11-21T04:54:28.428Z,0.54
2022-11-21T04:55:28.205Z,0.55
2022-11-21T04:56:28.220Z,0.55
2022-11-21T04:57:28.371Z,0.55
2022-11-21T04:58:28.183Z,0.56
2022-11-21T04:59:28.159Z,0.56
2022-11-21T05:00:28.283Z,0.55
2022-11-21T05:01:28.180Z,0.55
2022-11-21T05:02:28.128Z,0.55
2022-11-21T05:03:28.317Z,0.55
2022-11-21T05:04:28.381Z,0.56
2022-11-21T05:05:28.109Z,0.56
2022-11-21T05:06:28.087Z,0.55
2022-11-21T05:07:28.136Z,0.54
2022-11-21T05:08:28.069Z,0.54
2022-11-21T05:09:28.228Z,0.53
2022-11-21T05:10:28.045Z,0.52
2022-11-21T05:11:28.046Z,0.51
2022-11-21T05:12:28.038Z,0.50
2022-11-21T05:13:28.032Z,0.48
2022-11-21T05:14:28.315Z,0.47
2022-11-21T05:15:28.178Z,0.46
2022-11-21T05:16:27.981Z,0.45
2022-11-21T05:17:27.978Z,0.43
2022-11-21T05:18:27.969Z,0.42
2022-11-21T05:19:27.956Z,0.41
2022-11-21T05:20:27.958Z,0.40
2022-11-21T05:21:28.125Z,0.38
2022-11-21T05:22:27.984Z,0.37
2022-11-21T05:23:27.903Z,0.35
2022-11-21T05:24:28.267Z,0.33
2022-11-21T05:25:27.885Z,0.31
2022-11-21T05:26:27.875Z,0.29
2022-11-21T05:27:28.030Z,0.28
2022-11-21T05:28:27.858Z,0.28
2022-11-21T05:29:28.315Z,0.27
2022-11-21T05:30:27.838Z,0.27
2022-11-21T05:31:27.817Z,0.26
2022-11-21T05:32:27.823Z,0.26
2022-11-21T05:33:27.967Z,0.25
2022-11-21T05:34:27.933Z,0.24
2022-11-21T05:35:27.799Z,0.24
2022-11-21T05:36:27.762Z,0.23
2022-11-21T05:37:27.765Z,0.23
2022-11-21T05:38:27.754Z,0.23
2022-11-21T05:39:27.918Z,0.23
2022-11-21T05:40:27.718Z,0.23
2022-11-21T05:41:27.715Z,0.24
2022-11-21T05:42:27.704Z,0.25
2022-11-21T05:43:27.917Z,0.26
2022-11-21T05:44:27.965Z,0.27
2022-11-21T05:45:27.680Z,0.28
2022-11-21T05:46:27.667Z,0.29
2022-11-21T05:47:27.689Z,0.29
2022-11-21T05:48:27.655Z,0.29
2022-11-21T05:49:27.833Z,0.29
2022-11-21T05:50:27.624Z,0.28
2022-11-21T05:51:27.616Z,0.27
2022-11-21T05:52:27.651Z,0.27
2022-11-21T05:53:27.641Z,0.26
2022-11-21T05:54:28.132Z,0.26
2022-11-21T05:55:27.740Z,0.25
2022-11-21T05:56:27.556Z,0.25
2022-11-21T05:57:27.551Z,0.24
2022-11-21T05:58:27.522Z,0.24
2022-11-21T05:59:27.510Z,0.24
2022-11-21T06:00:27.685Z,0.25
2022-11-21T06:01:27.502Z,0.25
2022-11-21T06:02:27.500Z,0.25
2022-11-21T06:03:27.535Z,0.26
2022-11-21T06:04:27.735Z,0.26
2022-11-21T06:05:27.449Z,0.25
2022-11-21T06:06:27.600Z,0.25
2022-11-21T06:07:27.477Z,0.25
2022-11-21T06:08:27.433Z,0.24
2022-11-21T06:09:27.410Z,0.23
2022-11-21T06:10:27.400Z,0.22
2022-11-21T06:11:27.560Z,0.21
2022-11-21T06:12:27.393Z,0.21
2022-11-21T06:13:27.597Z,0.20
2022-11-21T06:14:27.701Z,0.21
2022-11-21T06:15:27.352Z,0.21
2022-11-21T06:16:27.348Z,0.22
2022-11-21T06:17:27.329Z,0.23
2022-11-21T06:18:27.317Z,0.23
2022-11-21T06:19:27.599Z,0.24
2022-11-21T06:20:27.284Z,0.24
2022-11-21T06:21:27.283Z,0.24
2022-11-21T06:22:27.274Z,0.24
2022-11-21T06:23:27.256Z,0.23
2022-11-21T06:24:27.596Z,0.23
2022-11-21T06:25:27.498Z,0.24
2022-11-21T06:26:27.231Z,0.24
2022-11-21T06:27:27.222Z,0.26
2022-11-21T06:28:27.209Z,0.27
2022-11-21T06:29:27.186Z,0.28
2022-11-21T06:30:27.189Z,0.30
2022-11-21T06:31:27.376Z,0.31
2022-11-21T06:32:27.214Z,0.31
2022-11-21T06:33:27.157Z,0.31
2022-11-21T06:34:34.651Z,0.30
2022-11-21T06:35:27.129Z,0.30
2022-11-21T06:36:27.127Z,0.30
2022-11-21T06:37:27.278Z,0.30
2022-11-21T06:38:27.100Z,0.30
2022-11-21T06:39:27.087Z,0.30
2022-11-21T06:40:27.068Z,0.30
2022-11-21T06:41:27.059Z,0.30
2022-11-21T06:42:27.050Z,0.30
2022-11-21T06:43:27.200Z,0.29
2022-11-21T06:44:27.504Z,0.29
2022-11-21T06:45:27.048Z,0.29
2022-11-21T06:46:27.183Z,0.30
2022-11-21T06:47:27.000Z,0.30
2022-11-21T06:48:26.989Z,0.31
2022-11-21T06:49:26.978Z,0.31
2022-11-21T06:50:26.972Z,0.31
2022-11-21T06:51:26.947Z,0.31
2022-11-21T06:52:27.121Z,0.31
2022-11-21T06:53:26.940Z,0.31
2022-11-21T06:54:26.924Z,0.30
2022-11-21T06:55:26.917Z,0.29
2022-11-21T06:56:26.904Z,0.28
2022-11-21T06:57:26.891Z,0.28
2022-11-21T06:58:27.057Z,0.28
2022-11-21T06:59:26.879Z,0.29
2022-11-21T07:00:26.860Z,0.29
2022-11-21T07:01:26.952Z,0.29
2022-11-21T07:02:26.840Z,0.29
2022-11-21T07:03:27.045Z,0.30
2022-11-21T07:04:27.069Z,0.30
2022-11-21T07:05:26.807Z,0.29
2022-11-21T07:06:26.802Z,0.30
2022-11-21T07:07:26.853Z,0.30
2022-11-21T07:08:26.765Z,0.30
2022-11-21T07:09:34.342Z,0.30
2022-11-21T07:10:27.752Z,0.30
2022-11-21T07:11:26.747Z,0.30
2022-11-21T07:12:26.733Z,0.30
2022-11-21T07:13:26.720Z,0.30
2022-11-21T07:14:26.715Z,0.31
2022-11-21T07:15:27.034Z,0.32
2022-11-21T07:16:26.696Z,0.32
2022-11-21T07:17:26.693Z,0.31
2022-11-21T07:18:26.662Z,0.31
2022-11-21T07:19:27.112Z,0.30
2022-11-21T07:20:26.640Z,0.29
2022-11-21T07:21:26.824Z,0.27
2022-11-21T07:22:26.623Z,0.26
2022-11-21T07:23:26.610Z,0.25
2022-11-21T07:24:26.603Z,0.24
2022-11-21T07:25:26.612Z,0.23
2022-11-21T07:26:26.581Z,0.23
2022-11-21T07:27:26.722Z,0.22
2022-11-21T07:28:26.559Z,0.21
2022-11-21T07:29:26.818Z,0.20
2022-11-21T07:30:26.535Z,0.20
2022-11-21T07:31:26.526Z,0.20
2022-11-21T07:32:26.694Z,0.21
2022-11-21T07:33:26.519Z,0.21
2022-11-21T07:34:26.492Z,0.22
2022-11-21T07:35:26.483Z,0.22
2022-11-21T07:36:26.489Z,0.22
2022-11-21T07:37:26.460Z,0.22
2022-11-21T07:38:26.621Z,0.23
2022-11-21T07:39:26.815Z,0.23
2022-11-21T07:40:26.434Z,0.23
2022-11-21T07:41:26.414Z,0.24
2022-11-21T07:42:26.422Z,0.24
2022-11-21T07:43:26.777Z,0.24
2022-11-21T07:44:26.383Z,0.24
2022-11-21T07:45:26.378Z,0.24
2022-11-21T07:46:26.367Z,0.24
2022-11-21T07:47:26.359Z,0.24
2022-11-21T07:48:26.548Z,0.24
2022-11-21T07:49:26.863Z,0.24
2022-11-21T07:50:26.322Z,0.23
2022-11-21T07:51:26.307Z,0.23
2022-11-21T07:52:26.318Z,0.22
2022-11-21T07:53:26.292Z,0.22
2022-11-21T07:54:26.448Z,0.22
2022-11-21T07:55:26.267Z,0.22
2022-11-21T07:56:26.264Z,0.22
2022-11-21T07:57:26.437Z,0.22
2022-11-21T07:58:26.228Z,0.24
2022-11-21T07:59:26.652Z,0.25
2022-11-21T08:00:26.210Z,0.27
2022-11-21T08:01:26.262Z,0.28
2022-11-21T08:02:26.186Z,0.29
2022-11-21T08:03:26.341Z,0.30
2022-11-21T08:04:26.177Z,0.31
2022-11-21T08:05:26.145Z,0.31
2022-11-21T08:06:26.162Z,0.32
2022-11-21T08:07:26.175Z,0.32
2022-11-21T08:08:26.320Z,0.32
2022-11-21T08:09:26.407Z,0.33
2022-11-21T08:10:26.103Z,0.33
2022-11-21T08:11:26.094Z,0.34
2022-11-21T08:12:26.084Z,0.34
2022-11-21T08:13:26.079Z,0.34
2022-11-21T08:14:26.243Z,0.33
2022-11-21T08:15:26.044Z,0.33
2022-11-21T08:16:26.065Z,0.33
2022-11-21T08:17:26.035Z,0.33
2022-11-21T08:18:26.023Z,0.33
2022-11-21T08:19:26.385Z,0.33
2022-11-21T08:20:26.289Z,0.33
2022-11-21T08:21:25.984Z,0.33
2022-11-21T08:22:25.975Z,0.33
2022-11-21T08:23:25.994Z,0.34
2022-11-21T08:24:25.954Z,0.34
2022-11-21T08:25:26.111Z,0.34
2022-11-21T08:26:25.922Z,0.34
2022-11-21T08:27:25.922Z,0.35
2022-11-21T08:28:26.091Z,0.35
2022-11-21T08:29:26.111Z,0.35
2022-11-21T08:30:25.972Z,0.36
2022-11-21T08:31:25.894Z,0.36
2022-11-21T08:32:25.862Z,0.36
2022-11-21T08:33:26.550Z,0.36
2022-11-21T08:34:26.012Z,0.36
2022-11-21T08:35:26.006Z,0.36
2022-11-21T08:36:25.821Z,0.37
2022-11-21T08:37:25.821Z,0.37
2022-11-21T08:38:25.801Z,0.38
2022-11-21T08:39:26.076Z,0.38
2022-11-21T08:40:25.780Z,0.38
2022-11-21T08:41:25.978Z,0.39
2022-11-21T08:42:25.762Z,0.39
2022-11-21T08:43:25.746Z,0.40
2022-11-21T08:44:25.736Z,0.40
2022-11-21T08:45:25.730Z,0.40
2022-11-21T08:46:25.721Z,0.41
2022-11-21T08:47:25.888Z,0.41
2022-11-21T08:48:25.699Z,0.41
2022-11-21T08:49:25.707Z,0.42
2022-11-21T08:50:25.700Z,0.42
2022-11-21T08:51:25.659Z,0.42
2022-11-21T08:52:25.653Z,0.42
2022-11-21T08:53:25.832Z,0.42
2022-11-21T08:54:25.978Z,0.43
2022-11-21T08:55:25.644Z,0.43
2022-11-21T08:56:25.612Z,0.43
2022-11-21T08:57:25.611Z,0.43
2022-11-21T08:58:25.588Z,0.43
2022-11-21T08:59:25.766Z,0.42
2022-11-21T09:00:25.566Z,0.42
2022-11-21T09:01:25.627Z,0.42
2022-11-21T09:02:25.545Z,0.41
2022-11-21T09:03:30.655Z,0.41
2022-11-21T09:04:27.083Z,0.41
2022-11-21T09:05:25.519Z,0.42
2022-11-21T09:06:25.498Z,0.42
2022-11-21T09:07:25.544Z,0.43
2022-11-21T09:08:25.482Z,0.43
2022-11-21T09:09:25.900Z,0.44
2022-11-21T09:10:25.629Z,0.45
2022-11-21T09:11:25.485Z,0.45
2022-11-21T09:12:25.666Z,0.46
2022-11-21T09:13:25.437Z,0.47
2022-11-21T09:14:25.715Z,0.47
2022-11-21T09:15:25.411Z,0.46
2022-11-21T09:16:25.407Z,0.46
2022-11-21T09:17:25.558Z,0.45
2022-11-21T09:18:25.364Z,0.45
2022-11-21T09:19:25.616Z,0.45
2022-11-21T09:20:25.394Z,0.45
2022-11-21T09:21:25.341Z,0.45
2022-11-21T09:22:25.324Z,0.45
2022-11-21T09:23:25.498Z,0.45
2022-11-21T09:24:25.309Z,0.45
2022-11-21T09:25:25.293Z,0.45
2022-11-21T09:26:25.306Z,0.45
2022-11-21T09:27:25.270Z,0.45
2022-11-21T09:28:25.269Z,0.45
2022-11-21T09:29:25.550Z,0.46
2022-11-21T09:30:25.243Z,0.46
2022-11-21T09:31:25.266Z,0.46
2022-11-21T09:32:25.233Z,0.47
2022-11-21T09:33:25.213Z,0.48
2022-11-21T09:34:25.612Z,0.49
2022-11-21T09:35:25.193Z,0.49
2022-11-21T09:36:25.181Z,0.51
2022-11-21T09:37:25.186Z,0.52
2022-11-21T09:38:25.189Z,0.53
2022-11-21T09:39:25.155Z,0.54
2022-11-21T09:40:25.294Z,0.55
2022-11-21T09:41:25.132Z,0.56
2022-11-21T09:42:25.127Z,0.57
2022-11-21T09:43:25.099Z,0.57
2022-11-21T09:44:25.370Z,0.59
2022-11-21T09:45:25.310Z,0.60
2022-11-21T09:46:25.071Z,0.62
2022-11-21T09:47:25.061Z,0.63
2022-11-21T09:48:25.057Z,0.64
2022-11-21T09:49:25.125Z,0.66
2022-11-21T09:50:25.028Z,0.67
2022-11-21T09:51:25.170Z,0.69
2022-11-21T09:52:25.009Z,0.70
2022-11-21T09:53:24.989Z,0.71
2022-11-21T09:54:25.120Z,0.73
2022-11-21T09:55:24.973Z,0.74
2022-11-21T09:56:25.130Z,0.75
2022-11-21T09:57:24.948Z,0.75
2022-11-21T09:58:25.004Z,0.75
2022-11-21T09:59:24.931Z,0.75
2022-11-21T10:00:25.045Z,0.75
2022-11-21T10:01:24.954Z,0.75
2022-11-21T10:02:25.067Z,0.76
2022-11-21T10:03:24.893Z,0.76
2022-11-21T10:04:24.900Z,0.76
2022-11-21T10:05:24.867Z,0.77
2022-11-21T10:06:24.866Z,0.78
2022-11-21T10:07:25.125Z,0.79
2022-11-21T10:08:24.838Z,0.80
2022-11-21T10:09:24.831Z,0.81
2022-11-21T10:10:24.842Z,0.82
2022-11-21T10:11:24.811Z,0.83
2022-11-21T10:12:24.983Z,0.83
2022-11-21T10:13:24.790Z,0.83
2022-11-21T10:14:24.776Z,0.83
2022-11-21T10:15:24.764Z,0.82
2022-11-21T10:16:24.757Z,0.82
2022-11-21T10:17:24.735Z,0.81
2022-11-21T10:18:24.948Z,0.81
2022-11-21T10:19:24.714Z,0.81
2022-11-21T10:20:24.715Z,0.81
2022-11-21T10:21:24.711Z,0.81
2022-11-21T10:22:24.773Z,0.81
2022-11-21T10:23:24.693Z,0.81
2022-11-21T10:24:24.859Z,0.81
2022-11-21T10:25:27.232Z,0.82
2022-11-21T10:26:24.640Z,0.84
2022-11-21T10:27:24.633Z,0.85
2022-11-21T10:28:24.647Z,0.84
2022-11-21T10:29:24.622Z,0.82
2022-11-21T10:30:24.633Z,0.80
2022-11-21T10:31:24.587Z,0.78
2022-11-21T10:32:24.623Z,0.77
2022-11-21T10:33:24.562Z,0.76
2022-11-21T10:34:24.563Z,0.76
2022-11-21T10:35:24.806Z,0.76
2022-11-21T10:36:24.542Z,0.76
2022-11-21T10:37:24.532Z,0.76
2022-11-21T10:38:24.511Z,0.74
2022-11-21T10:39:24.501Z,0.70
2022-11-21T10:40:24.501Z,0.66
2022-11-21T10:41:24.681Z,0.63
2022-11-21T10:42:24.963Z,0.61
2022-11-21T10:43:24.450Z,0.61
2022-11-21T10:44:24.451Z,0.60
2022-11-21T10:45:24.432Z,0.61
2022-11-21T10:46:24.430Z,0.61
2022-11-21T10:47:24.585Z,0.62
2022-11-21T10:48:24.404Z,0.63
2022-11-21T10:49:24.398Z,0.64
2022-11-21T10:50:24.391Z,0.66
2022-11-21T10:51:24.439Z,0.68
2022-11-21T10:52:24.364Z,0.70
2022-11-21T10:53:24.520Z,0.72
2022-11-21T10:54:24.350Z,0.73
2022-11-21T10:55:24.335Z,0.73
2022-11-21T10:56:24.330Z,0.74
2022-11-21T10:57:24.308Z,0.73
2022-11-21T10:58:24.303Z,0.73
2022-11-21T10:59:29.808Z,0.72
2022-11-21T11:00:25.279Z,0.72
2022-11-21T11:01:24.355Z,0.73
2022-11-21T11:02:24.253Z,0.74
2022-11-21T11:03:24.431Z,0.76
2022-11-21T11:04:28.540Z,0.77
2022-11-21T11:05:24.254Z,0.79
2022-11-21T11:06:24.226Z,0.80
2022-11-21T11:07:24.305Z,0.81
2022-11-21T11:08:24.199Z,0.81
2022-11-21T11:09:24.337Z,0.82
2022-11-21T11:10:27.622Z,0.83
2022-11-21T11:11:24.161Z,0.84
2022-11-21T11:12:24.159Z,0.83
2022-11-21T11:13:45.211Z,0.82
2022-11-21T11:14:25.524Z,0.81
2022-11-21T11:15:24.145Z,0.82
2022-11-21T11:16:24.123Z,0.82
2022-11-21T11:17:24.094Z,0.82
2022-11-21T11:18:24.093Z,0.81
2022-11-21T11:19:31.576Z,0.79
2022-11-21T11:20:25.071Z,0.78
2022-11-21T11:21:24.057Z,0.76
2022-11-21T11:22:24.052Z,0.73
2022-11-21T11:23:24.029Z,0.72
2022-11-21T11:24:24.025Z,0.71
2022-11-21T11:25:24.204Z,0.71
2022-11-21T11:26:24.005Z,0.72
2022-11-21T11:27:23.983Z,0.73
2022-11-21T11:28:24.007Z,0.72
2022-11-21T11:29:23.961Z,0.70
2022-11-21T11:30:23.954Z,0.69
2022-11-21T11:31:24.133Z,0.68
2022-11-21T11:32:23.938Z,0.68
2022-11-21T11:33:23.964Z,0.67
2022-11-21T11:34:23.920Z,0.67
2022-11-21T11:35:23.897Z,0.67
2022-11-21T11:36:23.911Z,0.68
2022-11-21T11:37:24.066Z,0.67
2022-11-21T11:38:23.865Z,0.66
2022-11-21T11:39:23.863Z,0.65
2022-11-21T11:40:23.844Z,0.66
2022-11-21T11:41:23.846Z,0.67
2022-11-21T11:42:23.995Z,0.68
2022-11-21T11:43:23.992Z,0.70
2022-11-21T11:44:23.818Z,0.72
2022-11-21T11:45:23.796Z,0.74
2022-11-21T11:46:23.780Z,0.74
2022-11-21T11:47:23.779Z,0.73
2022-11-21T11:48:23.972Z,0.73
2022-11-21T11:49:23.751Z,0.73
2022-11-21T11:50:23.746Z,0.74
2022-11-21T11:51:23.732Z,0.75
2022-11-21T11:52:23.723Z,0.76
2022-11-21T11:53:23.720Z,0.78
2022-11-21T11:54:23.932Z,0.80
2022-11-21T11:55:23.696Z,0.81
2022-11-21T11:56:23.688Z,0.83
2022-11-21T11:57:23.667Z,0.85
2022-11-21T11:58:23.655Z,0.88
2022-11-21T11:59:23.903Z,0.91
2022-11-21T12:00:23.638Z,0.93
2022-11-21T12:01:23.621Z,0.93
2022-11-21T12:02:23.693Z,0.92
2022-11-21T12:03:23.610Z,0.90
2022-11-21T12:04:23.610Z,0.88
2022-11-21T12:05:23.777Z,0.85
2022-11-21T12:06:36.180Z,0.82
2022-11-21T12:08:33.262Z,0.80
2022-11-21T12:08:41.727Z,0.79
2022-11-21T12:09:24.642Z,0.79
2022-11-21T12:10:23.525Z,0.79
2022-11-21T12:11:25.183Z,0.81
2022-11-21T12:12:23.495Z,0.83
2022-11-21T12:13:23.497Z,0.84
2022-11-21T12:14:23.493Z,0.86
2022-11-21T12:15:23.479Z,0.88
2022-11-21T12:16:23.466Z,0.90
2022-11-21T12:17:23.608Z,0.91
2022-11-21T12:18:23.444Z,0.93
2022-11-21T12:19:23.435Z,0.95
2022-11-21T12:20:23.423Z,0.97
2022-11-21T12:21:23.416Z,0.98
2022-11-21T12:22:23.666Z,0.99
2022-11-21T12:23:23.384Z,1.00
2022-11-21T12:24:23.389Z,1.00
2022-11-21T12:25:23.369Z,1.01
2022-11-21T12:26:23.361Z,1.02
2022-11-21T12:27:23.532Z,1.03
2022-11-21T12:28:23.335Z,1.05
2022-11-21T12:29:23.326Z,1.05
2022-11-21T12:30:23.317Z,1.05
2022-11-21T12:31:23.303Z,1.03
2022-11-21T12:32:23.303Z,1.03
2022-11-21T12:33:23.327Z,1.02
2022-11-21T12:34:23.275Z,1.02
2022-11-21T12:35:23.254Z,1.03
2022-11-21T12:36:23.251Z,1.04
2022-11-21T12:37:23.243Z,1.06
2022-11-21T12:38:23.225Z,1.06
2022-11-21T12:39:23.364Z,1.05
2022-11-21T12:40:23.221Z,1.03
2022-11-21T12:41:23.204Z,1.02
2022-11-21T12:42:23.203Z,1.00
2022-11-21T12:43:23.174Z,0.99
2022-11-21T12:44:23.334Z,0.98
2022-11-21T12:45:23.150Z,0.97
2022-11-21T12:46:23.154Z,0.97
2022-11-21T12:47:23.134Z,0.98
2022-11-21T12:48:23.112Z,0.98
2022-11-21T12:49:23.113Z,0.99
2022-11-21T12:50:23.281Z,0.99
2022-11-21T12:51:23.094Z,0.99
2022-11-21T12:52:23.073Z,0.99
2022-11-21T12:53:23.064Z,0.99
2022-11-21T12:54:23.053Z,0.99
2022-11-21T12:55:23.044Z,0.98
2022-11-21T12:56:23.222Z,0.97
2022-11-21T12:57:23.019Z,0.96
2022-11-21T12:58:23.015Z,0.95
2022-11-21T12:59:23.004Z,0.95
2022-11-21T13:00:22.981Z,0.94
2022-11-21T13:01:23.064Z,0.91
2022-11-21T13:02:23.139Z,0.87
2022-11-21T13:03:22.959Z,0.84
2022-11-21T13:04:22.945Z,0.82
2022-11-21T13:05:22.929Z,0.81
2022-11-21T13:06:22.919Z,0.81
2022-11-21T13:07:23.170Z,0.81
2022-11-21T13:08:24.605Z,0.81
2022-11-21T13:09:22.887Z,0.82
2022-11-21T13:10:22.885Z,0.83
2022-11-21T13:11:22.877Z,0.85
2022-11-21T13:12:23.199Z,0.86
2022-11-21T13:13:22.848Z,0.88
2022-11-21T13:14:22.844Z,0.88
2022-11-21T13:15:22.819Z,0.89
2022-11-21T13:16:22.812Z,0.90
2022-11-21T13:17:22.810Z,0.91
2022-11-21T13:18:22.967Z,0.92